Hakuryoumaru No.15 — JD2439 — position and weather

sailwx.info

Track history (hours):
 
Tides and Currents Weather Stations Pressure Air Temp Water Temp Dewpoint Dewpoint Depression Visibility Wind Speed Wind Dir Waves Ship Positions

Hakuryoumaru No.15

Last reported at 2017-Jul-22 09:34 UTC. Time now 2017-Jul-26 10:36 UTC.
Position N 34°57' E 139°22'.

Length 80 m; draft 3.8 m.

Type: Tanker. MMSI: 431000243.

Date/timePositionNaut miles runAvg speedWind from/ knotsBaromVisibWave heightAir tempDewpointWater temp
2017-Jul-22 09:34N 34°57' E 139°22'112.0
2017-Jul-22 09:29N 34°58' E 139°23'612.4
2017-Jul-22 08:59N 35°01' E 139°29'612.4
2017-Jul-22 08:28N 35°04' E 139°36'612.6
2017-Jul-22 08:00N 35°08' E 139°42'612.3
2017-Jul-22 07:30N 35°13' E 139°46'611.8
2017-Jul-22 07:00N 35°18' E 139°44'611.2
2017-Jul-22 06:30N 35°24' E 139°43'612.0
2017-Jul-22 06:00N 35°28' E 139°48'812.2
2017-Jul-22 05:22N 35°31' E 139°57'7 0.4
2017-Jul-21 13:21N 35°30' E 139°48'2 4.6
2017-Jul-21 13:00N 35°31' E 139°46'0 0.0
2017-Jul-21 12:30N 35°31' E 139°46'0 0.0
2017-Jul-21 12:00N 35°31' E 139°46'0 0.0
2017-Jul-21 11:30N 35°31' E 139°46'0 0.1
2017-Jul-21 11:00N 35°31' E 139°47'0 0.1
2017-Jul-21 10:30N 35°31' E 139°46'0 0.0
2017-Jul-21 10:00N 35°31' E 139°46'0 0.0
2017-Jul-21 09:30N 35°31' E 139°46'0 0.0
2017-Jul-21 09:00N 35°31' E 139°46'0 0.0
2017-Jul-21 08:30N 35°31' E 139°46'0 0.0
2017-Jul-21 08:00N 35°31' E 139°46'0 0.0
2017-Jul-21 07:30N 35°31' E 139°46'0 0.0
2017-Jul-21 07:00N 35°31' E 139°46'0 0.0
2017-Jul-21 06:21N 35°31' E 139°46'0 0.1
2017-Jul-21 06:00N 35°31' E 139°46'0 0.8
2017-Jul-21 05:30N 35°30' E 139°47'2 2.9
2017-Jul-21 04:59N 35°29' E 139°48'0 0.0
2017-Jul-21 04:02N 35°29' E 139°48'0 0.0
2017-Jul-21 03:47N 35°29' E 139°48'0 0.0
2017-Jul-21 02:20N 35°29' E 139°48'0 0.0
2017-Jul-21 01:56N 35°29' E 139°48'0 0.0
2017-Jul-21 01:29N 35°29' E 139°48'0 0.0
2017-Jul-21 00:56N 35°29' E 139°48'0 0.0
2017-Jul-21 00:26N 35°29' E 139°48'0 0.0
2017-Jul-20 23:59N 35°29' E 139°48'0 0.1
2017-Jul-20 23:26N 35°29' E 139°48'0 0.0
2017-Jul-20 22:53N 35°29' E 139°48'0 0.0
2017-Jul-20 22:29N 35°29' E 139°48'0 0.0
2017-Jul-20 21:59N 35°29' E 139°48'0 0.0
2017-Jul-20 21:23N 35°29' E 139°48'0 0.0
2017-Jul-20 20:59N 35°29' E 139°48'0 0.0
2017-Jul-20 20:23N 35°29' E 139°48'0 0.1
2017-Jul-20 19:56N 35°29' E 139°48'0 0.0
2017-Jul-20 19:29N 35°29' E 139°48'0 0.0
2017-Jul-20 15:08N 35°29' E 139°48'0 0.0
2017-Jul-20 14:59N 35°29' E 139°48'0 0.0
2017-Jul-20 13:59N 35°29' E 139°48'0 0.0
2017-Jul-20 13:29N 35°29' E 139°48'0 0.0
2017-Jul-20 12:59N 35°29' E 139°48'0 0.0
2017-Jul-20 12:29N 35°29' E 139°48'0 0.0
2017-Jul-20 11:59N 35°29' E 139°48'0 0.0
2017-Jul-20 11:29N 35°29' E 139°48'1 1.5
2017-Jul-20 11:00N 35°29' E 139°48'713.2
2017-Jul-20 10:30N 35°22' E 139°45'612.0
2017-Jul-20 09:59N 35°16' E 139°46'613.0
2017-Jul-20 09:30N 35°10' E 139°46'713.1
2017-Jul-20 09:00N 35°05' E 139°41'234 8.1
2017-Jul-19 04:14N 34°08' E 135°05'2 8.3
2017-Jul-19 04:00N 34°07' E 135°07'0 0.0
2017-Jul-18 16:57N 34°07' E 135°08'  
Track history (hours):
 
Tides and Currents Weather Stations Pressure Air Temp Water Temp Dewpoint Dewpoint Depression Visibility Wind Speed Wind Dir Waves Ship Positions

Hakuryoumaru No.15

Last reported at 2017-Jul-22 09:34 UTC. Time now 2017-Jul-26 10:36 UTC.
Position N 34°57' E 139°22'.

Length 80 m; draft 3.8 m.

Type: Tanker. MMSI: 431000243.

Date/timePositionNaut miles runAvg speedWind from/ knotsBaromVisibWave heightAir tempDewpointWater temp
2017-Jul-22 09:34N 34°57' E 139°22'112.0
2017-Jul-22 09:29N 34°58' E 139°23'612.4
2017-Jul-22 08:59N 35°01' E 139°29'612.4
2017-Jul-22 08:28N 35°04' E 139°36'612.6
2017-Jul-22 08:00N 35°08' E 139°42'612.3
2017-Jul-22 07:30N 35°13' E 139°46'611.8
2017-Jul-22 07:00N 35°18' E 139°44'611.2
2017-Jul-22 06:30N 35°24' E 139°43'612.0
2017-Jul-22 06:00N 35°28' E 139°48'812.2
2017-Jul-22 05:22N 35°31' E 139°57'7 0.4
2017-Jul-21 13:21N 35°30' E 139°48'2 4.6
2017-Jul-21 13:00N 35°31' E 139°46'0 0.0
2017-Jul-21 12:30N 35°31' E 139°46'0 0.0
2017-Jul-21 12:00N 35°31' E 139°46'0 0.0
2017-Jul-21 11:30N 35°31' E 139°46'0 0.1
2017-Jul-21 11:00N 35°31' E 139°47'0 0.1
2017-Jul-21 10:30N 35°31' E 139°46'0 0.0
2017-Jul-21 10:00N 35°31' E 139°46'0 0.0
2017-Jul-21 09:30N 35°31' E 139°46'0 0.0
2017-Jul-21 09:00N 35°31' E 139°46'0 0.0
2017-Jul-21 08:30N 35°31' E 139°46'0 0.0
2017-Jul-21 08:00N 35°31' E 139°46'0 0.0
2017-Jul-21 07:30N 35°31' E 139°46'0 0.0
2017-Jul-21 07:00N 35°31' E 139°46'0 0.0
2017-Jul-21 06:21N 35°31' E 139°46'0 0.1
2017-Jul-21 06:00N 35°31' E 139°46'0 0.8
2017-Jul-21 05:30N 35°30' E 139°47'2 2.9
2017-Jul-21 04:59N 35°29' E 139°48'0 0.0
2017-Jul-21 04:02N 35°29' E 139°48'0 0.0
2017-Jul-21 03:47N 35°29' E 139°48'0 0.0
2017-Jul-21 02:20N 35°29' E 139°48'0 0.0
2017-Jul-21 01:56N 35°29' E 139°48'0 0.0
2017-Jul-21 01:29N 35°29' E 139°48'0 0.0
2017-Jul-21 00:56N 35°29' E 139°48'0 0.0
2017-Jul-21 00:26N 35°29' E 139°48'0 0.0
2017-Jul-20 23:59N 35°29' E 139°48'0 0.1
2017-Jul-20 23:26N 35°29' E 139°48'0 0.0
2017-Jul-20 22:53N 35°29' E 139°48'0 0.0
2017-Jul-20 22:29N 35°29' E 139°48'0 0.0
2017-Jul-20 21:59N 35°29' E 139°48'0 0.0
2017-Jul-20 21:23N 35°29' E 139°48'0 0.0
2017-Jul-20 20:59N 35°29' E 139°48'0 0.0
2017-Jul-20 20:23N 35°29' E 139°48'0 0.1
2017-Jul-20 19:56N 35°29' E 139°48'0 0.0
2017-Jul-20 19:29N 35°29' E 139°48'0 0.0
2017-Jul-20 15:08N 35°29' E 139°48'0 0.0
2017-Jul-20 14:59N 35°29' E 139°48'0 0.0
2017-Jul-20 13:59N 35°29' E 139°48'0 0.0
2017-Jul-20 13:29N 35°29' E 139°48'0 0.0
2017-Jul-20 12:59N 35°29' E 139°48'0 0.0
2017-Jul-20 12:29N 35°29' E 139°48'0 0.0
2017-Jul-20 11:59N 35°29' E 139°48'0 0.0
2017-Jul-20 11:29N 35°29' E 139°48'1 1.5
2017-Jul-20 11:00N 35°29' E 139°48'713.2
2017-Jul-20 10:30N 35°22' E 139°45'612.0
2017-Jul-20 09:59N 35°16' E 139°46'613.0
2017-Jul-20 09:30N 35°10' E 139°46'713.1
2017-Jul-20 09:00N 35°05' E 139°41'234 8.1
2017-Jul-19 04:14N 34°08' E 135°05'2 8.3
2017-Jul-19 04:00N 34°07' E 135°07'0 0.0
2017-Jul-18 16:57N 34°07' E 135°08'  

Dump ship's entire track history